createdAt,value
2022-12-17T00:03:01.529Z,99715.06
2022-12-17T00:06:23.489Z,99715.06
2022-12-17T00:09:50.129Z,99714.62
2022-12-17T00:13:12.417Z,99715.50
2022-12-17T00:16:33.927Z,99708.09
2022-12-17T00:19:56.261Z,99703.41
2022-12-17T00:23:22.549Z,99692.44
2022-12-17T00:26:44.650Z,99702.34
2022-12-17T00:30:05.855Z,99723.69
2022-12-17T00:33:27.490Z,99722.16
2022-12-17T00:36:48.362Z,99722.69
2022-12-17T00:40:09.966Z,99706.34
2022-12-17T00:43:32.277Z,99681.19
2022-12-17T00:46:54.817Z,99693.28
2022-12-17T00:50:18.563Z,99691.66
2022-12-17T00:53:40.478Z,99692.50
2022-12-17T00:57:02.469Z,99710.97
2022-12-17T01:00:24.622Z,99735.94
2022-12-17T01:03:47.051Z,99742.94
2022-12-17T01:07:08.371Z,99749.72
2022-12-17T01:10:29.291Z,99769.66
2022-12-17T01:13:52.220Z,99769.12
2022-12-17T01:17:13.068Z,99788.06
2022-12-17T01:20:35.023Z,99802.44
2022-12-17T01:23:55.962Z,99804.13
2022-12-17T01:27:18.338Z,99794.63
2022-12-17T01:30:39.373Z,99801.81
2022-12-17T01:34:00.878Z,99814.72
2022-12-17T01:37:22.266Z,99817.47
2022-12-17T01:40:43.784Z,99826.16
2022-12-17T01:44:05.242Z,99830.53
2022-12-17T01:47:29.131Z,99829.62
2022-12-17T01:50:57.812Z,99833.97
2022-12-17T01:54:20.702Z,99837.72
2022-12-17T01:57:43.418Z,99832.38
2022-12-17T02:01:16.034Z,99838.25
2022-12-17T02:04:37.721Z,99848.53
2022-12-17T02:08:10.342Z,99837.34
2022-12-17T02:12:01.357Z,99841.72
2022-12-17T02:15:37.782Z,99843.94
2022-12-17T02:19:07.829Z,99844.47
2022-12-17T02:22:46.247Z,99846.50
2022-12-17T02:26:25.446Z,99843.03
2022-12-17T02:29:51.172Z,99830.44
2022-12-17T02:33:14.848Z,99830.84
2022-12-17T02:36:36.867Z,99827.03
2022-12-17T02:39:58.339Z,99832.47
2022-12-17T02:43:20.531Z,99830.16
2022-12-17T02:46:42.508Z,99835.50
2022-12-17T02:50:04.419Z,99836.47
2022-12-17T02:53:27.613Z,99857.44
2022-12-17T02:56:49.511Z,99853.81
2022-12-17T03:00:11.575Z,99864.34
2022-12-17T03:03:34.014Z,99863.47
2022-12-17T03:06:55.333Z,99865.69
2022-12-17T03:10:17.227Z,99881.59
2022-12-17T03:13:46.190Z,99894.56
2022-12-17T03:17:08.042Z,99897.44
2022-12-17T03:20:29.929Z,99902.59
2022-12-17T03:23:51.224Z,99898.03
2022-12-17T03:27:12.107Z,99888.53
2022-12-17T03:30:36.176Z,99888.44
2022-12-17T03:33:58.320Z,99884.50
2022-12-17T03:37:20.058Z,99881.19
2022-12-17T03:40:40.937Z,99892.16
2022-12-17T03:44:02.753Z,99896.09
2022-12-17T03:47:24.223Z,99904.22
2022-12-17T03:50:45.642Z,99891.69
2022-12-17T03:54:06.992Z,99899.38
2022-12-17T03:57:28.335Z,99897.19
2022-12-17T04:00:49.852Z,99898.03
2022-12-17T04:04:11.320Z,99913.47
2022-12-17T04:07:32.153Z,99915.16
2022-12-17T04:10:53.960Z,99913.31
2022-12-17T04:14:15.485Z,99919.63
2022-12-17T04:17:37.559Z,99907.16
2022-12-17T04:20:58.338Z,99917.69
2022-12-17T04:24:20.025Z,99905.44
2022-12-17T04:27:41.058Z,99897.50
2022-12-17T04:31:02.513Z,99906.03
2022-12-17T04:34:23.508Z,99904.16
2022-12-17T04:37:45.435Z,99915.25
2022-12-17T04:41:06.262Z,99930.03
2022-12-17T04:44:28.085Z,99955.56
2022-12-17T04:47:49.007Z,99955.44
2022-12-17T04:51:11.402Z,99962.47
2022-12-17T04:54:32.138Z,99965.44
2022-12-17T04:57:54.226Z,99967.62
2022-12-17T05:01:16.084Z,99970.03
2022-12-17T05:04:37.606Z,99974.97
2022-12-17T05:07:58.676Z,99986.81
2022-12-17T05:11:22.068Z,99979.41
2022-12-17T05:14:42.949Z,99991.28
2022-12-17T05:18:04.697Z,99988.09
2022-12-17T05:21:30.483Z,99976.53
2022-12-17T05:24:54.628Z,99997.81
2022-12-17T05:28:15.619Z,100000.88
2022-12-17T05:31:37.746Z,100005.91
2022-12-17T05:34:59.227Z,100014.22
2022-12-17T05:38:25.834Z,100024.28
2022-12-17T05:41:46.675Z,100036.25
2022-12-17T05:45:08.343Z,100045.16
2022-12-17T05:48:29.218Z,100044.41
2022-12-17T05:51:50.771Z,100054.88
2022-12-17T05:55:11.622Z,100055.53
2022-12-17T05:58:33.242Z,100058.53
2022-12-17T06:01:54.052Z,100062.69
2022-12-17T06:05:15.928Z,100062.59
2022-12-17T06:08:36.923Z,100079.88
2022-12-17T06:12:02.615Z,100085.72
2022-12-17T06:15:24.580Z,100089.38
2022-12-17T06:18:46.466Z,100087.09
2022-12-17T06:22:07.335Z,100103.72
2022-12-17T06:25:29.263Z,100113.00
2022-12-17T06:28:50.583Z,100125.22
2022-12-17T06:32:12.164Z,100143.44
2022-12-17T06:35:33.542Z,100126.44
2022-12-17T06:38:55.035Z,100136.03
2022-12-17T06:42:16.229Z,100130.53
2022-12-17T06:45:38.211Z,100136.38
2022-12-17T06:48:59.186Z,100153.56
2022-12-17T06:52:20.740Z,100164.75
2022-12-17T06:55:41.998Z,100163.47
2022-12-17T06:59:03.704Z,100160.62
2022-12-17T07:02:24.859Z,100176.28
2022-12-17T07:05:47.065Z,100178.41
2022-12-17T07:09:08.562Z,100186.94
2022-12-17T07:12:30.092Z,100191.09
2022-12-17T07:15:51.096Z,100198.88
2022-12-17T07:19:13.660Z,100197.19
2022-12-17T07:22:34.729Z,100208.34
2022-12-17T07:25:56.394Z,100195.94
2022-12-17T07:29:17.185Z,100210.09
2022-12-17T07:32:38.734Z,100217.38
2022-12-17T07:35:59.633Z,100227.56
2022-12-17T07:39:21.530Z,100223.41
2022-12-17T07:42:42.646Z,100238.44
2022-12-17T07:46:04.606Z,100235.00
2022-12-17T07:49:26.414Z,100243.81
2022-12-17T07:52:48.305Z,100236.81
2022-12-17T07:56:10.612Z,100244.31
2022-12-17T07:59:32.363Z,100255.81
2022-12-17T08:02:53.669Z,100261.13
2022-12-17T08:06:18.611Z,100261.34
2022-12-17T08:09:39.814Z,100268.13
2022-12-17T08:13:01.243Z,100276.56
2022-12-17T08:16:22.655Z,100275.81
2022-12-17T08:19:44.361Z,100277.56
2022-12-17T08:23:05.314Z,100285.09
2022-12-17T08:26:26.881Z,100285.91
2022-12-17T08:29:48.394Z,100300.59
2022-12-17T08:33:10.364Z,100300.97
2022-12-17T08:36:31.626Z,100302.59
2022-12-17T08:39:53.464Z,100320.03
2022-12-17T08:43:17.522Z,100326.38
2022-12-17T08:46:39.598Z,100331.44
2022-12-17T08:50:00.524Z,100321.06
2022-12-17T08:53:23.360Z,100307.81
2022-12-17T08:56:44.593Z,100322.78
2022-12-17T09:00:05.867Z,100329.38
2022-12-17T09:03:27.274Z,100326.19
2022-12-17T09:06:49.429Z,100324.47
2022-12-17T09:10:10.413Z,100323.84
2022-12-17T09:13:32.236Z,100339.63
2022-12-17T09:16:53.887Z,100334.25
2022-12-17T09:20:15.659Z,100334.75
2022-12-17T09:23:37.567Z,100339.03
2022-12-17T09:26:59.647Z,100341.06
2022-12-17T09:30:20.625Z,100357.59
2022-12-17T09:33:42.159Z,100359.34
2022-12-17T09:37:03.310Z,100357.09
2022-12-17T09:40:25.624Z,100382.66
2022-12-17T09:43:57.467Z,100361.09
2022-12-17T09:47:51.430Z,100348.78
2022-12-17T09:51:12.749Z,100352.34
2022-12-17T09:54:53.062Z,100354.09
2022-12-17T09:58:18.973Z,100352.63
2022-12-17T10:01:43.958Z,100359.47
2022-12-17T10:05:06.939Z,100355.53
2022-12-17T10:08:33.066Z,100345.84
2022-12-17T10:11:54.359Z,100359.53
2022-12-17T10:15:16.161Z,100366.75
2022-12-17T10:18:37.952Z,100375.50
2022-12-17T10:22:01.214Z,100383.78
2022-12-17T10:25:41.888Z,100395.22
2022-12-17T10:29:05.691Z,100408.81
2022-12-17T10:32:40.007Z,100419.06
2022-12-17T10:36:01.238Z,100431.88
2022-12-17T10:39:23.860Z,100420.25
2022-12-17T10:42:49.177Z,100437.37
2022-12-17T10:46:16.310Z,100440.66
2022-12-17T10:49:42.946Z,100462.16
2022-12-17T10:53:06.122Z,100468.19
2022-12-17T10:56:51.045Z,100470.63
2022-12-17T11:00:13.142Z,100463.22
2022-12-17T11:03:57.840Z,100450.06
2022-12-17T11:07:19.264Z,100461.56
2022-12-17T11:10:47.669Z,100466.81
2022-12-17T11:14:10.987Z,100478.28
2022-12-17T11:17:37.615Z,100497.63
2022-12-17T11:21:09.580Z,100499.47
2022-12-17T11:24:46.883Z,100509.75
2022-12-17T11:28:17.320Z,100504.66
2022-12-17T11:32:04.419Z,100513.12
2022-12-17T11:35:32.433Z,100512.94
2022-12-17T11:39:00.167Z,100525.84
2022-12-17T11:42:43.636Z,100524.34
2022-12-17T11:46:23.056Z,100527.22
2022-12-17T11:50:13.645Z,100532.94
2022-12-17T11:54:01.334Z,100547.62
2022-12-17T11:57:25.849Z,100569.37
2022-12-17T12:00:53.868Z,100577.06
2022-12-17T12:04:31.425Z,100570.13
2022-12-17T12:07:59.186Z,100571.81
2022-12-17T12:11:31.909Z,100576.03
2022-12-17T12:15:40.607Z,100589.59
2022-12-17T12:19:25.822Z,100585.72
2022-12-17T12:22:58.320Z,100601.44
2022-12-17T12:26:32.964Z,100597.47
2022-12-17T12:29:54.226Z,100594.78
2022-12-17T12:33:18.814Z,100614.41
2022-12-17T12:36:42.763Z,100615.84
2022-12-17T12:40:11.311Z,100598.38
2022-12-17T12:43:32.501Z,100598.88
2022-12-17T12:47:18.136Z,100593.37
2022-12-17T12:50:52.016Z,100602.09
2022-12-17T12:54:30.635Z,100616.47
2022-12-17T12:57:55.312Z,100637.13
2022-12-17T13:01:16.629Z,100639.38
2022-12-17T13:04:54.533Z,100616.91
2022-12-17T13:08:19.715Z,100644.97
2022-12-17T13:11:36.781Z,100645.06
2022-12-17T13:14:42.494Z,100661.34
2022-12-17T13:17:56.495Z,100661.25
2022-12-17T13:21:22.467Z,100673.66
2022-12-17T13:24:27.487Z,100673.56
2022-12-17T13:27:38.643Z,100690.47
2022-12-17T13:30:41.755Z,100698.34
2022-12-17T13:33:48.983Z,100695.09
2022-12-17T13:36:57.804Z,100692.72
2022-12-17T13:40:12.739Z,100709.22
2022-12-17T13:43:24.754Z,100712.56
2022-12-17T13:46:34.665Z,100742.22
2022-12-17T13:49:37.396Z,100752.94
2022-12-17T13:52:40.155Z,100745.66
2022-12-17T13:55:50.412Z,100736.69
2022-12-17T13:58:55.168Z,100741.97
2022-12-17T14:01:58.130Z,100755.19
2022-12-17T14:05:07.906Z,100752.69
2022-12-17T14:08:17.151Z,100767.03
2022-12-17T14:11:39.443Z,100763.09
2022-12-17T14:14:46.844Z,100756.72
2022-12-17T14:17:51.010Z,100764.75
2022-12-17T14:20:55.823Z,100779.31
2022-12-17T14:23:58.866Z,100803.63
2022-12-17T14:27:01.728Z,100790.50
2022-12-17T14:30:46.282Z,100800.03
2022-12-17T14:34:13.650Z,100799.75
2022-12-17T14:37:21.075Z,100815.78
2022-12-17T14:40:25.372Z,100822.50
2022-12-17T14:43:29.669Z,100823.00
2022-12-17T14:46:34.162Z,100834.56
2022-12-17T14:49:39.579Z,100837.37
2022-12-17T14:52:45.775Z,100839.72
2022-12-17T14:55:57.361Z,100847.97
2022-12-17T14:59:00.193Z,100851.09
2022-12-17T15:02:14.095Z,100854.41
2022-12-17T15:05:17.755Z,100864.56
2022-12-17T15:08:20.914Z,100873.47
2022-12-17T15:11:24.248Z,100875.03
2022-12-17T15:14:26.892Z,100881.19
2022-12-17T15:17:29.567Z,100890.81
2022-12-17T15:20:32.479Z,100918.37
2022-12-17T15:23:41.089Z,100908.19
2022-12-17T15:26:43.916Z,100907.84
2022-12-17T15:29:46.824Z,100927.63
2022-12-17T15:32:49.608Z,100923.81
2022-12-17T15:35:52.724Z,100935.88
2022-12-17T15:38:55.482Z,100933.16
2022-12-17T15:42:16.918Z,100940.62
2022-12-17T15:45:19.695Z,100932.28
2022-12-17T15:48:23.480Z,100935.47
2022-12-17T15:51:26.358Z,100952.97
2022-12-17T15:54:29.134Z,100955.03
2022-12-17T15:57:31.993Z,100955.53
2022-12-17T16:00:35.164Z,100957.22
2022-12-17T16:03:38.056Z,100962.75
2022-12-17T16:06:40.992Z,100966.34
2022-12-17T16:09:43.814Z,100971.22
2022-12-17T16:12:46.725Z,100955.41
2022-12-17T16:16:00.836Z,100967.62
2022-12-17T16:19:06.570Z,100968.25
2022-12-17T16:22:09.274Z,100972.34
2022-12-17T16:25:12.523Z,100965.78
2022-12-17T16:28:15.588Z,100975.38
2022-12-17T16:31:18.563Z,100970.00
2022-12-17T16:34:21.363Z,100989.78
2022-12-17T16:37:24.124Z,100992.50
2022-12-17T16:40:27.022Z,101004.53
2022-12-17T16:43:34.199Z,101013.63
2022-12-17T16:46:42.507Z,101032.00
2022-12-17T16:49:45.317Z,101030.72
2022-12-17T16:52:48.224Z,101042.66
2022-12-17T16:55:50.987Z,101038.72
2022-12-17T16:58:55.463Z,101040.84
2022-12-17T17:01:58.322Z,101060.00
2022-12-17T17:05:01.137Z,101052.56
2022-12-17T17:08:04.850Z,101055.62
2022-12-17T17:11:22.031Z,101050.72
2022-12-17T17:14:26.308Z,101054.53
2022-12-17T17:17:55.802Z,101065.94
2022-12-17T17:20:51.767Z,101074.28
2022-12-17T17:23:59.767Z,101061.69
2022-12-17T17:27:02.558Z,101057.91
2022-12-17T17:30:05.916Z,101065.66
2022-12-17T17:33:08.743Z,101071.44
2022-12-17T17:36:18.402Z,101070.00
2022-12-17T17:39:21.217Z,101085.91
2022-12-17T17:42:23.952Z,101085.91
2022-12-17T17:45:26.702Z,101087.19
2022-12-17T17:48:32.209Z,101091.75
2022-12-17T17:52:08.518Z,101106.34
2022-12-17T17:55:00.512Z,101112.09
2022-12-17T17:58:03.244Z,101110.69
2022-12-17T18:01:09.281Z,101109.16
2022-12-17T18:04:15.115Z,101119.22
2022-12-17T18:07:26.347Z,101123.09
2022-12-17T18:10:30.240Z,101117.47
2022-12-17T18:13:52.004Z,101121.06
2022-12-17T18:16:55.189Z,101132.53
2022-12-17T18:19:57.659Z,101139.47
2022-12-17T18:23:00.682Z,101145.37
2022-12-17T18:26:12.708Z,101155.03
2022-12-17T18:29:16.730Z,101170.72
2022-12-17T18:32:19.278Z,101173.53
2022-12-17T18:35:22.493Z,101182.28
2022-12-17T18:38:25.072Z,101180.84
2022-12-17T18:41:47.048Z,101189.94
2022-12-17T18:44:49.786Z,101189.94
2022-12-17T18:47:52.834Z,101199.97
2022-12-17T18:50:58.664Z,101209.69
2022-12-17T18:54:11.118Z,101210.47
2022-12-17T18:57:13.644Z,101223.09
2022-12-17T19:00:17.275Z,101232.03
2022-12-17T19:03:19.782Z,101236.13
2022-12-17T19:06:23.922Z,101243.47
2022-12-17T19:09:30.070Z,101258.38
2022-12-17T19:12:33.212Z,101258.59
2022-12-17T19:15:36.145Z,101257.56
2022-12-17T19:18:40.769Z,101268.03
2022-12-17T19:21:43.188Z,101275.91
2022-12-17T19:24:46.089Z,101269.97
2022-12-17T19:27:48.660Z,101277.72
2022-12-17T19:30:57.241Z,101278.16
2022-12-17T19:34:02.351Z,101288.81
2022-12-17T19:37:05.625Z,101285.50
2022-12-17T19:40:08.626Z,101305.81
2022-12-17T19:43:11.551Z,101311.28
2022-12-17T19:46:17.174Z,101315.22
2022-12-17T19:49:20.366Z,101327.88
2022-12-17T19:52:23.359Z,101320.88
2022-12-17T19:55:26.372Z,101326.59
2022-12-17T19:58:28.887Z,101331.72
2022-12-17T20:01:34.287Z,101337.00
2022-12-17T20:04:37.145Z,101337.06
2022-12-17T20:07:40.260Z,101341.25
2022-12-17T20:10:43.759Z,101347.03
2022-12-17T20:13:49.989Z,101352.75
2022-12-17T20:16:59.052Z,101355.03
2022-12-17T20:20:01.933Z,101359.16
2022-12-17T20:23:04.794Z,101355.53
2022-12-17T20:26:10.277Z,101366.69
2022-12-17T20:29:13.101Z,101365.19
2022-12-17T20:32:19.516Z,101367.16
2022-12-17T20:35:22.479Z,101374.84
2022-12-17T20:38:25.371Z,101383.59
2022-12-17T20:41:29.816Z,101393.66
2022-12-17T20:44:32.565Z,101401.06
2022-12-17T20:47:35.326Z,101408.22
2022-12-17T20:50:40.625Z,101413.19
2022-12-17T20:53:44.957Z,101418.94
2022-12-17T20:56:47.764Z,101423.13
2022-12-17T20:59:50.493Z,101429.97
2022-12-17T21:02:53.361Z,101436.47
2022-12-17T21:05:56.243Z,101447.16
2022-12-17T21:08:59.398Z,101443.87
2022-12-17T21:12:02.245Z,101468.91
2022-12-17T21:15:05.210Z,101472.25
2022-12-17T21:18:08.036Z,101477.94
2022-12-17T21:21:18.204Z,101483.84
2022-12-17T21:24:21.082Z,101488.34
2022-12-17T21:27:23.954Z,101487.91
2022-12-17T21:30:28.689Z,101493.19
2022-12-17T21:33:32.586Z,101495.75
2022-12-17T21:36:36.069Z,101502.69
2022-12-17T21:39:38.812Z,101505.56
2022-12-17T21:43:00.253Z,101499.69
2022-12-17T21:46:04.593Z,101496.97
2022-12-17T21:49:07.334Z,101500.88
2022-12-17T21:52:10.875Z,101510.53
2022-12-17T21:55:14.166Z,101509.50
2022-12-17T21:58:18.268Z,101509.50
2022-12-17T22:01:25.471Z,101514.03
2022-12-17T22:04:29.047Z,101521.75
2022-12-17T22:07:34.682Z,101519.34
2022-12-17T22:10:44.290Z,101524.28
2022-12-17T22:14:08.524Z,101529.59
2022-12-17T22:17:12.524Z,101540.00
2022-12-17T22:20:18.075Z,101543.31
2022-12-17T22:23:21.119Z,101547.25
2022-12-17T22:26:23.962Z,101557.66
2022-12-17T22:29:46.916Z,101555.53
2022-12-17T22:33:02.725Z,101559.19
2022-12-17T22:38:33.266Z,101559.75
2022-12-17T22:43:32.733Z,101570.66
2022-12-17T22:44:36.510Z,101572.28
2022-12-17T22:46:43.644Z,101570.19
2022-12-17T22:49:46.838Z,101582.69
2022-12-17T22:52:49.480Z,101583.31
2022-12-17T22:55:53.301Z,101586.63
2022-12-17T22:58:56.863Z,101589.94
2022-12-17T23:01:59.820Z,101595.06
2022-12-17T23:05:02.401Z,101601.84
2022-12-17T23:08:05.594Z,101607.28
2022-12-17T23:11:22.108Z,101607.28
2022-12-17T23:14:25.092Z,101617.84
2022-12-17T23:17:27.543Z,101616.78
2022-12-17T23:20:33.062Z,101632.78
2022-12-17T23:23:36.256Z,101627.50
2022-12-17T23:26:39.967Z,101631.44
2022-12-17T23:29:42.482Z,101621.16
2022-12-17T23:32:45.986Z,101632.78
2022-12-17T23:35:48.464Z,101641.22
2022-12-17T23:38:53.114Z,101645.75
2022-12-17T23:41:55.630Z,101653.00
2022-12-17T23:44:58.678Z,101657.06
2022-12-17T23:48:01.238Z,101661.47
2022-12-17T23:51:05.127Z,101664.91
2022-12-17T23:54:07.697Z,101670.47
2022-12-17T23:57:10.883Z,101680.16
